Time;durP1;ratioP1;P1;durP2;ratioP2;P2;SDS_P1;SDS_P2;PMS_P1;PMS_P2;Temp;Humidity;BMP_temperature;BMP_pressure;BME280_temperature;BME280_humidity;BME280_pressure;Samples;Min_cycle;Max_cycle;Signal;HPM_P1;HPM_P2
2023/10/12 00:00:24;;;;;;;13.25;3.97;;;19.50;99.90;;;;;;5096244;28;20371;-77
2023/10/12 00:03:12;;;;;;;11.50;4.15;;;19.50;99.90;;;;;;5075979;28;20043;-77
2023/10/12 00:05:59;;;;;;;9.10;3.60;;;19.40;99.90;;;;;;5081333;28;20150;-77
2023/10/12 00:08:45;;;;;;;10.10;4.30;;;19.50;99.90;;;;;;5074226;28;20370;-76
2023/10/12 00:11:37;;;;;;;11.70;4.10;;;19.40;99.90;;;;;;5061353;28;20039;-77
2023/10/12 00:14:26;;;;;;;9.95;4.05;;;19.40;99.90;;;;;;5066075;28;20081;-76
2023/10/12 00:17:12;;;;;;;13.68;4.97;;;19.40;99.90;;;;;;5084050;28;20122;-77
2023/10/12 00:19:58;;;;;;;9.35;4.43;;;19.40;99.90;;;;;;5092434;28;20132;-77
2023/10/12 00:22:46;;;;;;;8.95;4.10;;;19.40;99.90;;;;;;5078543;28;20483;-77
2023/10/12 00:25:34;;;;;;;13.60;4.00;;;19.40;99.90;;;;;;5079548;28;20055;-76
2023/10/12 00:28:21;;;;;;;12.30;4.43;;;19.30;99.90;;;;;;5067378;28;20047;-77
2023/10/12 00:31:16;;;;;;;10.15;4.15;;;19.30;99.90;;;;;;5091315;28;20537;-77
2023/10/12 00:34:03;;;;;;;15.35;4.97;;;19.30;99.90;;;;;;5082924;28;20039;-76
2023/10/12 00:36:52;;;;;;;11.55;4.13;;;19.30;99.90;;;;;;5076365;28;20054;-76
2023/10/12 00:42:39;;;;;;;11.98;4.30;;;19.30;99.90;;;;;;5095223;28;20082;-76
2023/10/12 00:45:29;;;;;;;8.95;4.20;;;19.20;99.90;;;;;;5065714;28;20039;-76
2023/10/12 00:48:16;;;;;;;18.50;4.78;;;19.20;99.90;;;;;;5059007;28;20085;-75
2023/10/12 00:51:02;;;;;;;17.73;4.73;;;19.20;99.90;;;;;;5089659;28;20039;-77
2023/10/12 00:53:57;;;;;;;18.70;5.13;;;19.20;99.90;;;;;;5061829;28;20039;-77
2023/10/12 00:56:43;;;;;;;13.05;4.47;;;19.10;99.90;;;;;;5085562;28;20047;-77
2023/10/12 00:59:32;;;;;;;16.25;5.20;;;19.10;99.90;;;;;;5069129;28;20039;-77
2023/10/12 01:02:23;;;;;;;14.40;4.60;;;19.10;99.90;;;;;;5075523;28;20044;-77
2023/10/12 01:05:10;;;;;;;11.00;4.40;;;19.00;99.90;;;;;;5066412;28;20024;-76
2023/10/12 01:07:56;;;;;;;16.02;4.90;;;19.00;99.90;;;;;;5062499;28;20058;-76
2023/10/12 01:10:42;;;;;;;13.70;4.63;;;19.00;99.90;;;;;;5083486;28;20099;-76
2023/10/12 01:13:33;;;;;;;17.60;4.40;;;19.00;99.90;;;;;;5070537;28;20114;-76
2023/10/12 01:16:28;;;;;;;12.07;4.32;;;19.00;99.90;;;;;;5074118;28;20028;-77
2023/10/12 01:19:21;;;;;;;13.32;4.50;;;19.00;99.90;;;;;;5078219;28;20508;-76
2023/10/12 01:22:12;;;;;;;17.15;4.78;;;19.00;99.90;;;;;;5107747;28;20039;-76
2023/10/12 01:25:00;;;;;;;13.60;4.75;;;19.00;99.90;;;;;;5090655;28;20035;-77
2023/10/12 01:27:49;;;;;;;15.88;4.90;;;19.00;99.90;;;;;;5094154;28;20118;-77
2023/10/12 01:30:39;;;;;;;10.93;4.72;;;18.90;99.90;;;;;;5081040;28;20076;-77
2023/10/12 01:33:25;;;;;;;12.50;4.80;;;19.00;99.90;;;;;;5060926;28;20720;-76
2023/10/12 01:36:11;;;;;;;11.75;4.53;;;18.90;99.90;;;;;;5083849;28;20068;-77
2023/10/12 01:39:14;;;;;;;17.02;4.82;;;18.90;99.90;;;;;;5080716;28;20044;-76
2023/10/12 01:42:00;;;;;;;11.00;4.68;;;18.80;99.90;;;;;;5095803;28;20047;-77
2023/10/12 01:44:46;;;;;;;14.40;4.32;;;18.80;99.90;;;;;;5082151;28;20475;-77
2023/10/12 01:47:37;;;;;;;17.00;4.75;;;18.80;99.90;;;;;;5107369;28;20442;-76
2023/10/12 01:50:27;;;;;;;15.75;4.50;;;18.70;99.90;;;;;;5093012;28;20369;-77
2023/10/12 01:56:09;;;;;;;17.08;5.07;;;18.70;99.90;;;;;;5095268;28;20046;-77
2023/10/12 01:58:55;;;;;;;15.77;5.13;;;18.50;99.90;;;;;;5076009;28;20043;-77
2023/10/12 02:01:46;;;;;;;15.63;5.00;;;18.50;99.90;;;;;;5087774;28;20071;-77
2023/10/12 02:04:32;;;;;;;12.82;4.63;;;18.50;99.90;;;;;;5084832;28;20373;-77
2023/10/12 02:07:18;;;;;;;16.08;5.00;;;18.50;99.90;;;;;;5111197;28;20474;-76
2023/10/12 02:10:11;;;;;;;15.02;5.03;;;18.50;99.90;;;;;;5083642;28;20036;-76
2023/10/12 02:12:56;;;;;;;9.65;4.88;;;18.40;99.90;;;;;;5075741;28;20043;-76
2023/10/12 02:15:43;;;;;;;10.13;4.78;;;18.40;99.90;;;;;;5094803;28;20161;-73
2023/10/12 02:18:30;;;;;;;14.25;5.35;;;18.40;99.90;;;;;;5088896;28;20503;-73
2023/10/12 02:21:22;;;;;;;12.23;4.80;;;18.30;99.90;;;;;;5078001;28;20482;-73
2023/10/12 02:26:55;;;;;;;12.60;5.22;;;18.30;99.90;;;;;;5084705;28;20035;-73
2023/10/12 02:29:40;;;;;;;15.32;5.45;;;18.20;99.90;;;;;;5110569;28;20050;-72
2023/10/12 02:32:28;;;;;;;13.70;5.75;;;18.00;99.90;;;;;;5086023;28;20399;-73
2023/10/12 02:35:19;;;;;;;13.43;5.97;;;18.00;99.90;;;;;;5083720;28;20063;-73
2023/10/12 02:38:10;;;;;;;10.85;5.45;;;17.80;99.90;;;;;;5087007;28;20039;-73
2023/10/12 02:40:58;;;;;;;16.83;6.35;;;17.70;99.90;;;;;;5076152;28;20425;-74
2023/10/12 02:43:50;;;;;;;13.05;5.95;;;17.50;99.90;;;;;;5094956;28;20046;-73
2023/10/12 02:46:39;;;;;;;16.48;6.18;;;17.40;99.90;;;;;;5083420;28;20055;-73
2023/10/12 02:49:27;;;;;;;11.77;6.85;;;17.30;99.90;;;;;;5085726;28;20036;-73
2023/10/12 02:52:14;;;;;;;16.77;7.38;;;17.30;99.90;;;;;;5091890;28;20040;-74
2023/10/12 02:55:18;;;;;;;17.35;6.90;;;17.30;99.90;;;;;;5089435;28;20154;-74
2023/10/12 02:58:07;;;;;;;14.60;7.65;;;17.30;99.90;;;;;;5093342;28;20039;-73
2023/10/12 03:00:56;;;;;;;16.25;8.05;;;17.20;99.90;;;;;;5093165;28;20054;-73
2023/10/12 03:03:48;;;;;;;20.55;7.50;;;17.20;99.90;;;;;;5070213;28;20036;-73
2023/10/12 03:06:52;;;;;;;17.65;7.22;;;17.20;99.90;;;;;;5087133;28;20071;-73
2023/10/12 03:09:43;;;;;;;18.27;8.05;;;17.20;99.90;;;;;;5064216;28;20032;-73
2023/10/12 03:12:34;;;;;;;14.68;7.68;;;17.30;99.90;;;;;;5087980;28;20357;-73
2023/10/12 03:15:44;;;;;;;12.02;8.07;;;17.30;99.90;;;;;;5085463;28;20064;-73
2023/10/12 03:18:30;;;;;;;14.27;8.88;;;17.20;99.90;;;;;;5075356;28;20042;-77
2023/10/12 03:21:17;;;;;;;22.15;9.52;;;17.00;99.90;;;;;;5065770;28;20066;-77
2023/10/12 03:24:05;;;;;;;19.38;9.85;;;16.90;99.90;;;;;;5095489;28;20360;-76
2023/10/12 03:30:06;;;;;;;19.55;9.77;;;16.70;99.90;;;;;;5103130;28;19922;-77
2023/10/12 03:32:52;;;;;;;19.52;10.02;;;16.80;99.90;;;;;;5086558;28;20067;-75
2023/10/12 03:35:44;;;;;;;21.13;10.20;;;16.60;99.90;;;;;;5085026;28;20136;-76
2023/10/12 03:38:35;;;;;;;25.08;10.07;;;16.50;99.90;;;;;;5082384;28;20047;-76
2023/10/12 03:44:19;;;;;;;18.98;9.63;;;16.40;99.90;;;;;;5091949;28;20046;-76
2023/10/12 03:47:14;;;;;;;24.27;9.50;;;16.30;99.90;;;;;;5043817;28;20386;-76
2023/10/12 03:50:05;;;;;;;17.80;9.38;;;16.20;99.90;;;;;;5040707;28;20472;-77
2023/10/12 03:52:52;;;;;;;14.23;9.07;;;16.10;99.90;;;;;;5054535;28;20070;-76
2023/10/12 03:55:42;;;;;;;16.48;9.48;;;16.00;99.90;;;;;;5065903;28;20044;-77
2023/10/12 03:58:29;;;;;;;19.35;9.50;;;16.00;99.90;;;;;;5067076;28;20033;-77
2023/10/12 04:04:53;;;;;;;19.27;10.15;;;15.90;99.90;;;;;;5067154;28;20101;-77
2023/10/12 04:07:17;;;;;;;20.05;10.77;;;16.00;99.90;;;;;;5052099;28;20131;-77
2023/10/12 04:10:14;;;;;;;20.38;11.93;;;15.90;99.90;;;;;;5050552;28;20493;-77
2023/10/12 04:13:07;;;;;;;24.77;13.15;;;15.90;99.90;;;;;;5048560;28;20044;-78
2023/10/12 04:25:13;;;;;;;16.27;9.77;;;15.70;99.90;;;;;;5026269;28;20148;-77
2023/10/12 04:28:17;;;;;;;18.58;9.73;;;15.40;99.90;;;;;;5067802;28;20039;-77
2023/10/12 04:34:05;;;;;;;15.07;8.38;;;15.40;99.90;;;;;;5055371;28;20528;-76
2023/10/12 04:37:09;;;;;;;19.90;8.95;;;15.30;99.90;;;;;;5055170;28;20090;-77
2023/10/12 04:39:57;;;;;;;15.88;8.07;;;15.10;99.90;;;;;;5043292;28;20032;-77
2023/10/12 04:42:45;;;;;;;16.13;7.78;;;15.10;99.90;;;;;;5066375;28;20127;-77
2023/10/12 04:46:05;;;;;;;14.40;8.07;;;15.10;99.90;;;;;;5065407;28;20115;-77
2023/10/12 04:48:41;;;;;;;18.75;7.32;;;15.10;99.90;;;;;;5062983;28;20095;-77
2023/10/12 04:51:30;;;;;;;14.93;7.53;;;15.00;99.90;;;;;;5056567;28;20040;-77
2023/10/12 04:54:23;;;;;;;18.35;7.38;;;15.00;99.90;;;;;;5064298;28;20094;-77
2023/10/12 05:03:03;;;;;;;17.00;7.20;;;14.90;99.90;;;;;;5051182;28;20048;-77
2023/10/12 05:05:56;;;;;;;14.63;7.03;;;14.90;99.90;;;;;;5048731;28;20056;-77
2023/10/12 05:08:42;;;;;;;15.27;7.85;;;14.80;99.90;;;;;;5032769;28;20366;-77
2023/10/12 05:11:28;;;;;;;16.55;6.72;;;14.80;99.90;;;;;;5043368;28;20036;-77
2023/10/12 05:14:15;;;;;;;16.80;7.68;;;14.80;99.90;;;;;;5066796;28;20041;-77
2023/10/12 05:17:00;;;;;;;12.60;7.55;;;14.80;99.90;;;;;;5058252;28;20472;-77
2023/10/12 05:19:47;;;;;;;15.85;7.47;;;14.80;99.90;;;;;;5061086;28;20049;-77
2023/10/12 05:22:35;;;;;;;15.18;7.60;;;14.70;99.90;;;;;;5064850;28;20076;-77
2023/10/12 05:25:21;;;;;;;16.07;8.47;;;14.80;99.90;;;;;;5042440;28;20043;-77
2023/10/12 05:28:14;;;;;;;16.73;8.93;;;14.70;99.90;;;;;;5048872;28;20163;-77
2023/10/12 05:31:09;;;;;;;15.35;9.35;;;14.70;99.90;;;;;;5058942;28;20422;-77
2023/10/12 05:34:18;;;;;;;15.40;9.00;;;14.70;99.90;;;;;;5058303;28;20032;-76
2023/10/12 05:40:10;;;;;;;20.88;9.27;;;14.70;99.90;;;;;;5067580;28;20099;-77
2023/10/12 05:42:56;;;;;;;14.80;8.40;;;14.70;99.90;;;;;;5044242;28;20044;-77
2023/10/12 05:45:44;;;;;;;15.93;8.98;;;14.70;99.90;;;;;;5057574;28;20806;-77
2023/10/12 05:48:33;;;;;;;17.77;9.82;;;14.70;99.90;;;;;;5056779;28;20044;-77
2023/10/12 05:51:21;;;;;;;16.35;9.20;;;14.70;99.90;;;;;;5052777;28;20539;-77
2023/10/12 05:54:07;;;;;;;17.85;9.77;;;14.70;99.90;;;;;;5073874;28;20048;-77
2023/10/12 05:56:53;;;;;;;16.50;8.85;;;14.60;99.90;;;;;;5058229;28;20040;-77
2023/10/12 05:59:39;;;;;;;18.42;9.15;;;14.60;99.90;;;;;;5060405;28;20044;-78
2023/10/12 06:02:26;;;;;;;14.63;8.05;;;14.60;99.90;;;;;;5044627;28;20048;-78
2023/10/12 06:05:12;;;;;;;15.90;8.68;;;14.70;99.90;;;;;;5034133;28;20099;-77
2023/10/12 06:08:02;;;;;;;16.58;8.30;;;14.70;99.90;;;;;;5055843;28;20036;-77
2023/10/12 06:10:48;;;;;;;15.18;8.05;;;14.80;99.90;;;;;;5039623;28;20040;-77
2023/10/12 06:13:41;;;;;;;17.17;9.02;;;14.80;99.90;;;;;;5046769;28;20040;-77
2023/10/12 06:16:28;;;;;;;15.90;8.45;;;14.90;99.90;;;;;;5049003;28;20443;-77
2023/10/12 06:19:26;;;;;;;17.20;8.80;;;14.90;99.90;;;;;;5036236;28;20389;-76
2023/10/12 06:22:23;;;;;;;;;;;15.00;99.90;;;;;;5054475;28;20369;-77
2023/10/12 06:25:18;;;;;;;13.57;9.05;;;15.00;99.90;;;;;;5057447;28;19912;-77
2023/10/12 06:28:16;;;;;;;18.13;9.57;;;15.00;99.90;;;;;;5067741;28;20041;-78
2023/10/12 06:31:04;;;;;;;15.35;9.25;;;15.00;99.90;;;;;;5048668;28;20043;-78
2023/10/12 06:33:50;;;;;;;14.17;9.50;;;15.00;99.90;;;;;;5043399;28;20040;-78
2023/10/12 06:36:38;;;;;;;18.75;10.23;;;15.00;99.90;;;;;;5043721;28;20276;-78
2023/10/12 06:42:25;;;;;;;19.20;10.25;;;15.10;99.90;;;;;;5048889;28;20059;-78
2023/10/12 06:45:15;;;;;;;18.10;10.02;;;15.10;99.90;;;;;;5040722;28;20040;-78
2023/10/12 06:48:21;;;;;;;18.02;10.10;;;15.10;99.90;;;;;;5050277;28;20056;-78
2023/10/12 06:51:11;;;;;;;17.23;9.82;;;15.10;99.90;;;;;;5052852;28;20087;-78
2023/10/12 06:54:08;;;;;;;18.58;9.82;;;15.10;99.90;;;;;;5056620;28;20459;-78
2023/10/12 06:57:12;;;;;;;20.23;11.52;;;15.10;99.90;;;;;;5058110;28;20120;-78
2023/10/12 07:02:45;;;;;;;17.08;10.02;;;15.20;99.90;;;;;;5064193;28;20119;-78
2023/10/12 07:05:37;;;;;;;14.90;9.60;;;15.20;99.90;;;;;;5047162;28;20050;-78
2023/10/12 07:08:27;;;;;;;17.67;10.05;;;15.20;99.90;;;;;;5064102;28;20037;-77
2023/10/12 07:11:14;;;;;;;18.42;9.80;;;15.20;99.90;;;;;;5065572;28;20480;-78
2023/10/12 07:14:04;;;;;;;18.65;11.20;;;15.30;99.90;;;;;;5056409;28;20083;-78
2023/10/12 07:16:54;;;;;;;16.23;9.93;;;15.20;99.90;;;;;;5057147;28;20063;-78
2023/10/12 07:19:47;;;;;;;10.10;6.53;;;15.00;99.90;;;;;;5046679;28;20040;-78
2023/10/12 07:22:37;;;;;;;9.45;4.55;;;14.90;99.90;;;;;;5060088;28;20095;-78
2023/10/12 07:25:26;;;;;;;7.07;3.60;;;14.70;99.90;;;;;;5057488;28;20039;-78
2023/10/12 07:28:18;;;;;;;7.03;2.60;;;14.50;99.90;;;;;;5062721;28;20044;-77
2023/10/12 07:34:01;;;;;;;3.33;1.20;;;14.40;99.90;;;;;;5064142;28;20048;-77
2023/10/12 07:36:53;;;;;;;3.33;1.15;;;14.20;99.90;;;;;;5037198;28;20485;-77
2023/10/12 07:39:42;;;;;;;4.82;1.30;;;14.20;99.90;;;;;;5047601;28;20558;-77
2023/10/12 07:42:28;;;;;;;5.95;1.65;;;14.20;99.90;;;;;;5038642;28;20381;-77
2023/10/12 07:45:17;;;;;;;7.03;1.20;;;14.10;99.90;;;;;;5045768;28;20547;-77
2023/10/12 07:48:09;;;;;;;6.32;1.60;;;14.10;99.90;;;;;;5051512;28;20091;-77
2023/10/12 07:50:57;;;;;;;3.50;1.25;;;14.10;99.90;;;;;;5033589;28;20124;-77
2023/10/12 07:53:50;;;;;;;3.33;1.37;;;14.20;99.90;;;;;;5066214;28;20052;-77
2023/10/12 07:56:40;;;;;;;5.82;1.38;;;14.20;99.90;;;;;;5055209;28;20045;-76
2023/10/12 07:59:29;;;;;;;3.92;1.17;;;14.20;99.90;;;;;;5067737;28;20040;-76
2023/10/12 08:02:15;;;;;;;4.32;1.40;;;14.00;99.90;;;;;;5038844;28;20142;-76
2023/10/12 08:05:16;;;;;;;7.07;1.40;;;14.00;99.90;;;;;;5055345;28;20093;-77
2023/10/12 08:10:56;;;;;;;7.28;1.30;;;13.90;99.90;;;;;;5062070;28;20036;-77
2023/10/12 08:13:48;;;;;;;6.40;1.40;;;14.00;99.90;;;;;;5046492;28;20106;-77
2023/10/12 08:16:40;;;;;;;8.73;1.45;;;13.90;99.90;;;;;;5068335;28;20528;-77
2023/10/12 08:19:29;;;;;;;7.15;1.83;;;14.00;99.90;;;;;;5045353;28;20036;-77
2023/10/12 08:22:25;;;;;;;7.45;1.60;;;14.00;99.90;;;;;;5032528;28;20101;-77
2023/10/12 08:25:11;;;;;;;8.68;1.63;;;13.90;99.90;;;;;;5065467;28;20067;-77
2023/10/12 08:28:05;;;;;;;7.68;1.67;;;13.70;99.90;;;;;;5034538;28;20045;-77
2023/10/12 08:31:01;;;;;;;9.57;1.85;;;13.70;99.90;;;;;;5040829;28;20036;-76
2023/10/12 08:33:58;;;;;;;11.60;1.70;;;13.50;99.90;;;;;;5052875;28;20496;-77
2023/10/12 08:42:55;;;;;;;9.25;1.90;;;13.60;99.90;;;;;;5065638;28;20376;-77
2023/10/12 08:45:42;;;;;;;;;;;13.70;99.90;;;;;;5059668;28;20047;-76
2023/10/12 08:48:34;;;;;;;11.95;2.90;;;13.60;99.90;;;;;;5067878;28;19920;-76
2023/10/12 08:51:29;;;;;;;10.38;2.15;;;13.70;99.90;;;;;;5034376;28;20116;-77
2023/10/12 08:54:16;;;;;;;11.02;2.63;;;13.80;99.90;;;;;;5049490;28;20151;-77
2023/10/12 08:57:09;;;;;;;5.85;1.73;;;13.70;99.90;;;;;;5049860;28;20066;-77
2023/10/12 09:00:23;;;;;;;13.32;2.17;;;13.60;99.90;;;;;;5049544;28;20075;-77
2023/10/12 09:03:14;;;;;;;10.30;1.60;;;13.70;99.90;;;;;;5065915;28;20083;-74
2023/10/12 09:06:00;;;;;;;9.43;2.13;;;13.80;99.90;;;;;;5057419;28;20801;-74
2023/10/12 09:08:46;;;;;;;8.02;2.08;;;13.90;99.90;;;;;;5053671;28;20043;-74
2023/10/12 09:11:37;;;;;;;9.02;2.05;;;13.90;99.90;;;;;;5025589;28;20044;-74
2023/10/12 09:14:26;;;;;;;12.68;2.53;;;13.90;99.90;;;;;;5068990;28;20064;-73
2023/10/12 09:17:20;;;;;;;;;;;13.90;99.90;;;;;;5052490;28;20568;-74
2023/10/12 09:23:28;;;;;;;14.32;2.22;;;14.00;99.90;;;;;;5044381;28;20049;-73
2023/10/12 09:26:15;;;;;;;10.45;2.00;;;13.90;99.90;;;;;;5066122;28;20121;-74
2023/10/12 09:35:23;;;;;;;11.98;2.35;;;13.90;99.90;;;;;;5067608;28;20051;-74
2023/10/12 09:38:12;;;;;;;12.52;1.90;;;14.00;99.90;;;;;;5052902;28;20135;-74
2023/10/12 09:40:59;;;;;;;13.15;2.30;;;14.00;99.90;;;;;;5058751;28;20106;-75
2023/10/12 09:43:45;;;;;;;12.88;2.25;;;14.10;99.90;;;;;;5043748;28;20462;-74
2023/10/12 09:46:35;;;;;;;9.90;2.10;;;14.10;99.90;;;;;;5068086;28;20054;-74
2023/10/12 09:49:22;;;;;;;12.27;2.17;;;14.10;99.90;;;;;;5069144;28;20103;-74
2023/10/12 09:52:13;;;;;;;9.77;1.73;;;14.10;99.90;;;;;;5066854;28;20470;-74
2023/10/12 09:55:07;;;;;;;12.25;2.20;;;14.10;99.90;;;;;;5071945;28;20162;-74
2023/10/12 09:57:53;;;;;;;9.75;1.88;;;14.00;99.90;;;;;;5087390;28;20488;-74
2023/10/12 10:00:59;;;;;;;13.07;1.90;;;14.10;99.90;;;;;;5070432;28;20454;-74
2023/10/12 10:07:25;;;;;;;9.27;2.03;;;14.10;99.90;;;;;;5083816;28;20039;-74
2023/10/12 10:10:27;;;;;;;10.45;1.80;;;14.10;99.90;;;;;;5079252;28;20505;-74
2023/10/12 10:13:37;;;;;;;10.05;2.38;;;14.10;99.90;;;;;;5087224;28;20379;-74
2023/10/12 10:16:24;;;;;;;8.48;1.70;;;14.20;99.90;;;;;;5086215;28;20065;-74
2023/10/12 10:19:16;;;;;;;8.77;1.77;;;14.10;99.90;;;;;;5078544;28;20086;-77
2023/10/12 10:22:05;;;;;;;11.38;1.98;;;14.20;99.90;;;;;;5096378;28;20361;-77
2023/10/12 10:24:57;;;;;;;8.55;1.70;;;14.20;99.90;;;;;;5073435;28;20126;-76
2023/10/12 10:27:43;;;;;;;7.95;1.77;;;14.30;99.90;;;;;;5080204;28;20038;-77
2023/10/12 10:30:36;;;;;;;9.85;1.90;;;14.30;99.90;;;;;;5073130;28;20118;-77
2023/10/12 10:33:23;;;;;;;8.85;2.03;;;14.30;99.90;;;;;;5069829;28;20502;-77
2023/10/12 10:36:13;;;;;;;10.52;2.10;;;14.40;99.90;;;;;;5070323;28;20060;-77
2023/10/12 10:39:03;;;;;;;13.13;2.28;;;14.40;99.90;;;;;;5097031;28;20043;-77
2023/10/12 10:41:55;;;;;;;9.23;2.53;;;14.40;99.90;;;;;;5086512;28;20123;-77
2023/10/12 10:44:45;;;;;;;10.70;1.73;;;14.40;99.90;;;;;;5067705;28;20060;-77
2023/10/12 10:47:32;;;;;;;15.00;2.00;;;14.50;99.90;;;;;;5087823;28;20152;-77
2023/10/12 10:50:20;;;;;;;7.77;1.70;;;14.50;99.90;;;;;;5096451;28;20100;-77
2023/10/12 10:53:08;;;;;;;8.70;1.80;;;14.50;99.90;;;;;;5082000;28;20047;-77
2023/10/12 10:55:54;;;;;;;9.75;1.70;;;14.50;99.90;;;;;;5077400;28;20040;-77
2023/10/12 10:58:41;;;;;;;9.27;1.58;;;14.50;99.90;;;;;;5078504;28;20043;-77
2023/10/12 11:01:27;;;;;;;9.57;1.65;;;14.60;99.90;;;;;;5082650;28;20098;-77
2023/10/12 11:04:46;;;;;;;10.38;2.08;;;14.60;99.90;;;;;;5095790;28;20036;-76
2023/10/12 11:07:25;;;;;;;9.88;1.90;;;14.70;99.90;;;;;;5089999;28;20043;-77
2023/10/12 11:10:19;;;;;;;8.82;1.52;;;14.80;99.90;;;;;;5085752;28;20559;-77
2023/10/12 11:13:17;;;;;;;9.70;1.90;;;14.80;99.90;;;;;;5080335;28;20035;-77
2023/10/12 11:16:28;;;;;;;11.85;1.80;;;14.90;99.90;;;;;;5077546;28;20432;-77
2023/10/12 11:19:19;;;;;;;11.68;2.03;;;14.80;99.90;;;;;;5071811;28;20368;-77
2023/10/12 11:22:12;;;;;;;9.85;2.70;;;14.80;99.90;;;;;;5083570;28;20027;-77
2023/10/12 11:24:59;;;;;;;7.85;1.83;;;14.80;99.90;;;;;;5082704;28;20036;-76
2023/10/12 11:27:45;;;;;;;10.73;2.10;;;14.80;99.90;;;;;;5066019;28;20075;-74
2023/10/12 11:30:31;;;;;;;9.18;2.05;;;14.90;99.90;;;;;;5093892;28;20036;-74
2023/10/12 11:33:26;;;;;;;8.93;1.80;;;14.90;99.90;;;;;;5075026;28;20069;-74
2023/10/12 11:36:23;;;;;;;14.68;2.05;;;14.90;99.90;;;;;;5081370;28;20044;-74
2023/10/12 11:39:19;;;;;;;13.63;2.25;;;14.90;99.90;;;;;;5057789;28;20100;-74
2023/10/12 11:42:12;;;;;;;12.70;2.55;;;14.90;99.90;;;;;;5087385;28;20134;-74
2023/10/12 11:44:58;;;;;;;11.77;2.35;;;14.90;99.90;;;;;;5075093;28;20067;-74
2023/10/12 11:47:44;;;;;;;13.30;2.22;;;14.90;99.90;;;;;;5084083;28;20055;-74
2023/10/12 11:50:34;;;;;;;13.52;2.08;;;14.90;99.90;;;;;;5084340;28;20039;-74
2023/10/12 11:53:20;;;;;;;14.57;1.90;;;14.90;99.90;;;;;;5072151;28;20069;-74
2023/10/12 11:56:17;;;;;;;8.05;1.90;;;14.90;99.90;;;;;;5073458;28;20571;-74
2023/10/12 11:59:19;;;;;;;10.85;1.98;;;14.90;99.90;;;;;;5088798;28;20051;-74
2023/10/12 12:02:16;;;;;;;8.52;1.77;;;14.90;99.90;;;;;;5086601;28;20043;-74
2023/10/12 12:05:04;;;;;;;11.82;2.20;;;14.80;99.90;;;;;;5079875;28;20035;-74
2023/10/12 12:07:51;;;;;;;9.30;2.08;;;14.70;99.90;;;;;;5096949;28;20035;-74
2023/10/12 12:10:53;;;;;;;11.52;2.22;;;14.80;99.90;;;;;;5086584;28;20046;-74
2023/10/12 12:13:47;;;;;;;10.00;2.10;;;14.80;99.90;;;;;;5083870;28;20039;-74
2023/10/12 12:16:34;;;;;;;9.25;1.90;;;14.70;99.90;;;;;;5070112;28;20088;-74
2023/10/12 12:19:24;;;;;;;10.15;2.47;;;14.70;99.90;;;;;;5065529;28;20040;-74
2023/10/12 12:22:15;;;;;;;8.50;2.00;;;14.70;99.90;;;;;;5087034;28;20348;-74
2023/10/12 12:25:13;;;;;;;10.98;2.38;;;14.60;99.90;;;;;;5094791;28;20044;-74
2023/10/12 12:28:03;;;;;;;12.02;2.67;;;14.60;99.90;;;;;;5079091;28;20619;-74
2023/10/12 12:30:55;;;;;;;17.58;3.00;;;14.60;99.90;;;;;;5095501;28;20526;-74
2023/10/12 12:33:43;;;;;;;10.27;2.40;;;14.50;99.90;;;;;;5093853;28;20050;-74
2023/10/12 12:36:30;;;;;;;10.43;4.07;;;14.50;99.90;;;;;;5094123;28;20086;-74
2023/10/12 12:39:21;;;;;;;11.18;2.47;;;14.50;99.90;;;;;;5092119;28;20372;-74
2023/10/12 12:42:11;;;;;;;14.63;2.33;;;14.50;99.90;;;;;;5087457;28;20132;-74
2023/10/12 12:44:57;;;;;;;13.55;2.25;;;14.40;99.90;;;;;;5107959;28;20035;-74
2023/10/12 12:47:43;;;;;;;18.25;2.25;;;14.40;99.90;;;;;;5065291;28;20126;-74
2023/10/12 12:50:29;;;;;;;18.13;3.20;;;14.40;99.90;;;;;;5062992;28;20036;-74
2023/10/12 12:53:18;;;;;;;20.40;2.53;;;14.40;99.90;;;;;;5091018;28;20448;-74
2023/10/12 12:56:10;;;;;;;11.40;1.88;;;14.40;99.90;;;;;;5073536;28;20039;-74
2023/10/12 12:58:55;;;;;;;11.95;2.17;;;14.40;99.90;;;;;;5078296;28;20118;-74
2023/10/12 13:01:45;;;;;;;8.05;1.67;;;14.40;99.90;;;;;;5086703;28;20130;-73
2023/10/12 13:04:35;;;;;;;10.85;2.00;;;14.40;99.90;;;;;;5104894;28;20529;-74
2023/10/12 13:07:22;;;;;;;12.82;2.88;;;14.40;99.90;;;;;;5087787;28;20107;-74
2023/10/12 13:10:11;;;;;;;12.45;3.35;;;14.40;99.90;;;;;;5074608;28;20384;-74
2023/10/12 13:12:57;;;;;;;11.45;2.42;;;14.30;99.90;;;;;;5091665;28;20035;-74
2023/10/12 13:15:47;;;;;;;9.68;2.38;;;14.30;99.90;;;;;;5078622;28;20044;-74
2023/10/12 13:18:33;;;;;;;10.23;2.25;;;14.30;99.90;;;;;;5068599;28;20068;-74
2023/10/12 13:21:22;;;;;;;10.60;2.53;;;14.30;99.90;;;;;;5052737;28;20048;-73
2023/10/12 13:24:08;;;;;;;9.18;2.15;;;14.30;99.90;;;;;;5091856;28;20039;-76
2023/10/12 13:26:55;;;;;;;10.02;2.60;;;14.30;99.90;;;;;;5077189;28;20040;-76
2023/10/12 13:29:43;;;;;;;12.32;2.40;;;14.30;99.90;;;;;;5064496;28;20047;-77
2023/10/12 13:32:29;;;;;;;13.25;2.50;;;14.30;99.90;;;;;;5076556;28;20051;-76
2023/10/12 13:35:28;;;;;;;15.70;2.83;;;14.40;99.90;;;;;;5073262;28;20439;-76
2023/10/12 13:38:16;;;;;;;11.60;2.15;;;14.40;99.90;;;;;;5082745;28;20142;-76
2023/10/12 13:41:02;;;;;;;13.82;3.05;;;14.40;99.90;;;;;;5072421;28;20467;-77
2023/10/12 13:43:48;;;;;;;9.82;2.00;;;14.40;99.90;;;;;;5080370;28;20039;-76
2023/10/12 13:46:34;;;;;;;9.13;2.45;;;14.40;99.90;;;;;;5093730;28;20058;-75
2023/10/12 13:49:22;;;;;;;10.07;2.03;;;14.40;99.90;;;;;;5091584;28;20035;-76
2023/10/12 13:52:12;;;;;;;10.90;2.17;;;14.40;99.90;;;;;;5068855;28;20050;-76
2023/10/12 13:54:58;;;;;;;10.48;2.50;;;14.30;99.90;;;;;;5073641;28;20052;-77
2023/10/12 13:57:57;;;;;;;9.40;2.00;;;14.30;99.90;;;;;;5079614;28;20231;-77
2023/10/12 14:00:43;;;;;;;7.93;1.92;;;14.30;99.90;;;;;;5072352;28;20055;-76
2023/10/12 14:03:34;;;;;;;9.90;2.15;;;14.30;99.90;;;;;;5079838;28;20051;-77
2023/10/12 14:06:21;;;;;;;10.55;1.92;;;14.30;99.90;;;;;;5067547;28;20027;-76
2023/10/12 14:09:11;;;;;;;13.55;2.85;;;14.30;99.90;;;;;;5070791;28;21072;-77
2023/10/12 14:11:57;;;;;;;6.15;1.73;;;14.30;99.90;;;;;;5096092;28;20049;-76
2023/10/12 14:14:44;;;;;;;7.70;1.95;;;14.30;99.90;;;;;;5073202;28;20035;-77
2023/10/12 14:17:30;;;;;;;10.45;1.85;;;14.30;99.90;;;;;;5093028;28;20425;-76
2023/10/12 14:20:20;;;;;;;8.95;1.88;;;14.30;99.90;;;;;;5074959;28;20040;-76
2023/10/12 14:23:06;;;;;;;9.38;1.85;;;14.30;99.90;;;;;;5087822;28;20118;-76
2023/10/12 14:25:54;;;;;;;7.97;1.95;;;14.30;99.90;;;;;;5081280;28;20503;-74
2023/10/12 14:28:41;;;;;;;7.97;1.95;;;14.40;99.90;;;;;;5085513;28;20031;-74
2023/10/12 14:31:27;;;;;;;10.30;2.03;;;14.40;99.90;;;;;;5094894;28;20035;-74
2023/10/12 14:34:13;;;;;;;10.13;2.50;;;14.40;99.90;;;;;;5074683;28;20040;-74
2023/10/12 14:36:59;;;;;;;10.60;2.30;;;14.30;99.90;;;;;;5078249;28;20043;-74
2023/10/12 14:39:46;;;;;;;8.65;2.15;;;14.30;99.90;;;;;;5083683;28;20036;-74
2023/10/12 14:42:36;;;;;;;8.63;2.60;;;14.30;99.90;;;;;;5071550;28;20138;-74
2023/10/12 14:45:24;;;;;;;10.30;1.92;;;14.30;99.90;;;;;;5073173;28;20402;-74
2023/10/12 14:48:13;;;;;;;8.23;1.70;;;14.30;99.90;;;;;;5069001;28;20053;-74
2023/10/12 14:51:17;;;;;;;6.15;1.70;;;14.30;99.90;;;;;;5057220;28;20119;-74
2023/10/12 14:54:03;;;;;;;6.10;1.20;;;14.30;99.90;;;;;;5066578;28;20040;-74
2023/10/12 14:56:49;;;;;;;7.38;1.38;;;14.30;99.90;;;;;;5055842;28;20403;-74
2023/10/12 14:59:35;;;;;;;7.18;2.03;;;14.30;99.90;;;;;;5059903;28;20044;-74
2023/10/12 15:02:20;;;;;;;8.85;1.58;;;14.30;99.90;;;;;;5068718;28;20052;-74
2023/10/12 15:05:11;;;;;;;5.60;1.33;;;14.30;99.90;;;;;;5067451;28;20442;-74
2023/10/12 15:07:58;;;;;;;5.03;1.27;;;14.30;99.90;;;;;;5045100;28;20048;-74
2023/10/12 15:10:44;;;;;;;6.93;2.35;;;14.30;99.90;;;;;;5056365;28;20036;-74
2023/10/12 15:13:31;;;;;;;5.53;1.30;;;14.20;99.90;;;;;;5068957;28;20143;-74
2023/10/12 15:16:18;;;;;;;3.45;1.25;;;14.30;99.90;;;;;;5059393;28;20047;-74
2023/10/12 15:19:08;;;;;;;4.35;1.42;;;14.30;99.90;;;;;;5059594;28;20464;-74
2023/10/12 15:21:54;;;;;;;3.08;0.93;;;14.30;99.90;;;;;;5068550;28;20427;-74
2023/10/12 15:24:40;;;;;;;4.07;1.20;;;14.30;99.90;;;;;;5066254;28;20361;-74
2023/10/12 15:27:27;;;;;;;3.83;1.10;;;14.30;99.90;;;;;;5059357;28;20041;-74
2023/10/12 15:30:14;;;;;;;6.68;1.40;;;14.30;99.90;;;;;;5040568;28;20197;-74
2023/10/12 15:33:00;;;;;;;5.75;1.58;;;14.30;99.90;;;;;;5060365;28;20113;-74
2023/10/12 15:35:46;;;;;;;5.03;1.42;;;14.30;99.90;;;;;;5050202;28;20045;-74
2023/10/12 15:38:32;;;;;;;4.97;1.20;;;14.30;99.90;;;;;;5066823;28;20408;-74
2023/10/12 15:41:19;;;;;;;5.13;1.55;;;14.30;99.90;;;;;;5056401;28;20044;-74
2023/10/12 15:44:06;;;;;;;3.20;1.15;;;14.30;99.90;;;;;;5066744;28;20554;-75
2023/10/12 15:46:51;;;;;;;4.90;1.30;;;14.30;99.90;;;;;;5044052;28;20802;-74